AirNav   TITAN Aviation Fuels
 
 903 users online  

38WA Blakely Island Airport
Blakely Island, Washington, USA

GOING TO BLAKELY ISLAND?


FAA INFORMATION EFFECTIVE 22 APRIL 2021

Location

FAA Identifier: 38WA
Lat/Long: 48-34-44.3700N 122-49-34.6470W
48-34.739500N 122-49.577450W
48.5789917,-122.8262908
(estimated)
Elevation: 66 ft. / 20.1 m (surveyed)
Variation: 21E (1985)
Time zone: UTC -7 (UTC -8 during Standard Time)
Zip code: 98222

Airport Operations

Airport use: Private use. Permission required prior to landing
Activation date: 01/1948
Control tower: no
ARTCC: SEATTLE CENTER
FSS: SEATTLE FLIGHT SERVICE STATION
Attendance: CONTINUOUS
Wind indicator: lighted
Segmented circle: no
Lights: ACTVT MIRL RY 01/19 - 122.9.

Airport Communications

WX AWOS-3 at ORS (8 nm NW): 135.425 (360-376-6045)
WX ASOS at FHR (9 nm SW): 135.675 (360-378-8491)
WX ASOS at NUW (15 nm SE): PHONE 360-257-8813
WX ASOS at BLI (17 nm NE): PHONE 360-671-8688
WX AWOS-3 at BVS (17 nm E): 121.125 (360-757-7767)
  • MULTICOM FREQ 122.9.

Nearby radio navigation aids

VOR radial/distance  VOR name  Freq  Var
CVVr330/20.5PENN COVE VOR/DME117.2019E
HUHr184/24.1WHATCOM VORTAC113.0020E
YYJr092/27.6VICTORIA VOR/DME113.7017E
YVRr140/32.5VANCOUVER VOR/DME115.9017E

 
NDB name  Hdg/Dist  Freq  Var  ID
FRIDAY HARBOR046/8.828417EFHR ..-. .... .-.
SKAGIT/BAY VIEW276/17.524016EBVS -... ...- ...
EDIZ HOOK024/35.033817ENOW -. --- .--

Airport Services

Runway Information

Runway 1/19

Dimensions: 2200 x 40 ft. / 671 x 12 m
ADDNL 200 X 40' OVRNS & TURBC BOTH ENDS RWY 01/19.
Surface: asphalt
Runway edge lights: medium intensity
RUNWAY 1  RUNWAY 19
Traffic pattern: leftright
Displaced threshold: 252 ft.122 ft.
Obstructions: trees, 2000 ft. from runwaytrees, 2000 ft. from runway

Airport Ownership and Management from official FAA records

Ownership: Privately-owned
Owner: BLAKELY ISLAND MAINT COM
355 BLAKELY DR
BLAKELY ISLAND, WA 98222
Manager: DAN ROACH
466 MARINE DR
BLAKLEY ISLAND, WA 98222
Phone 206-276-3054
FONE 206-276-3054 DECRRR@GMAIL.COM. SEC CTC JOEL STEWARD 509-435-7591 360-375-6662.

Airport Operational Statistics

Aircraft based on the field: 11
Single engine airplanes: 5
Multi engine airplanes: 6
    

Additional Remarks

TREES BOTH SIDES OF RWY PENT TRSNL SFC.
WATCH FOR DEER ON RWY.
MIDDLE RY 01/19 HIGHER THAN EITHER END. CHECK ARPT TFC FM RUN-UP PAD CENTER OF FLD BEFORE TKOF.
FOR CD CTC WHIDBEY APCH AT 360-257-3310.

Instrument Procedures

There are no published instrument procedures at 38WA.

Some nearby airports with instrument procedures:

KORS - Orcas Island Airport (8 nm NW)
KFHR - Friday Harbor Airport (9 nm SW)
KNUW - Whidbey Island Naval Air Station (Ault Field) (15 nm SE)
KBLI - Bellingham International Airport (17 nm NE)
KBVS - Skagit Regional Airport (17 nm E)
 
Loc | Ops | Rwys | IFR | FBO | Links
Com | Nav | Svcs | Stats | Notes
Area around 38WA (Blakely Island Airport)
 
Road maps at: MapQuest Bing Google
 
Aerial photo
WARNING: Photo may not be current or correct
Aerial photo of 38WA (Blakely Island Airport)
Photo by Domenick Venezia, 2003-09

Do you have a better or more recent aerial photo of Blakely Island Airport that you would like to share? If so, please send us your photo.

 
Sectional chart

 
Airport distance calculator
Flying to Blakely Island Airport? Find the distance to fly.

From to 38WA

Sunrise and sunset
Times for 16-May-2021
 Local
(UTC-7)
 Zulu
(UTC)
Morning civil twilight04:5211:52
Sunrise05:3012:30
Sunset20:4503:45
Evening civil twilight21:2304:23

Current date and time
Zulu (UTC)  16-May-2021 13:12:34
Local (UTC-7)  16-May-2021 06:12:34
 
METAR
KORS 
8nm N 
161255Z AUTO 15003KT 10SM CLR 11/10 A3000 RMK AO2
KFHR 
9nm SW 
161253Z AUTO 00000KT 1/4SM FG VV001 07/07 A3002 RMK AO2 SLP167 T00670067 TSNO
CWEZ 
14nm NW 
161200Z AUTO 25005KT 11/08 RMK AO1 SLP160 T01100084 50001
KNUW 
15nm SE 
161256Z AUTO VRB03KT 1/4SM FG VV003 09/08 A3006 RMK AO2 SLP178 T00940083
CWZO 
16nm W 
161200Z AUTO 18005KT RMK AO1
KBVS 
18nm E 
161255Z AUTO 00000KT 2SM BR CLR 07/06 A3002 RMK A01
KBLI 
18nm NE 
161253Z AUTO 20005KT 10SM CLR 12/10 A3000 RMK AO2 SLP165 T01220100
CWYJ 
20nm SW 
161200Z AUTO 25001KT 07/07 RMK AO1 SLP165 T00720072 50001
TAF
KNUW 
15nm SE 
1523/1623 27009KT 9999 FEW020 SCT250 QNH3005INS FM160100 22006KT 9999 FEW010 SCT250 QNH3001INS FM161100 22005KT 3200 BR BKN005 BKN250 QNH3000INS TEMPO 1611/1617 0800 FG VV002 BECMG 1617/1618 25009KT 9999 FEW010 SCT050 BKN250 QNH2995INS FM162200 26012KT 9999 BKN050 BKN100 BKN250 QNH2993INS LAST NO AMDS AFT 1606 NEXT 1615 T09/1613Z T16/1622Z FS30020
KBLI 
18nm NE 
161130Z 1612/1712 VRB05KT P6SM SKC FM161400 17005KT P6SM FEW007 FM161700 18007KT P6SM SKC FM162200 18012G18KT P6SM SKC FM170600 17010KT P6SM SCT090 FM171000 16012KT P6SM BKN040
NOTAMs
Click for the latest NOTAMs
NOTAMs are issued by the DoD/FAA and will open in a separate window not controlled by AirNav.

 

 
 

Would you like to see your business listed on this page?

 If your business provides an interesting product or service to pilots, flight crews, aircraft, or users of the Blakely Island Airport, you should consider listing it here.  To start the listing process, click on the button below
 
Add a business
 

Other Pages about Blakely Island Airport

www.rockisland.com/...
 
Update a link
 
Copyright © AirNav, LLC. All rights reserved. Privacy Policy  Contact